Time;durP1;ratioP1;P1;durP2;ratioP2;P2;SDS_P1;SDS_P2;PMS_P1;PMS_P2;Temp;Humidity;BMP_temperature;BMP_pressure;BME280_temperature;BME280_humidity;BME280_pressure;Samples;Min_cycle;Max_cycle;Signal;HPM_P1;HPM_P2
2023/04/15 00:01:52;;;;;;;1.58;0.60;;;18.10;66.50;;;;;;4887375;29;45615;-73
2023/04/15 00:04:19;;;;;;;1.63;0.70;;;18.10;66.30;;;;;;4887118;29;46090;-73
2023/04/15 00:06:51;;;;;;;1.17;0.70;;;18.10;66.30;;;;;;4891147;29;45307;-73
2023/04/15 00:09:20;;;;;;;1.58;0.85;;;18.10;66.30;;;;;;4887717;29;45428;-73
2023/04/15 00:11:47;;;;;;;1.23;0.90;;;18.10;66.30;;;;;;4882208;29;45328;-72
2023/04/15 00:14:14;;;;;;;2.88;1.20;;;18.10;66.40;;;;;;4887401;29;45474;-73
2023/04/15 00:16:41;;;;;;;1.20;0.85;;;18.10;67.00;;;;;;4887475;29;45322;-73
2023/04/15 00:19:08;;;;;;;2.58;0.88;;;18.10;67.10;;;;;;4887451;29;45401;-73
2023/04/15 00:21:35;;;;;;;1.38;0.95;;;18.10;67.20;;;;;;4886396;29;45505;-73
2023/04/15 00:24:02;;;;;;;2.80;1.20;;;18.10;67.20;;;;;;4895603;29;48330;-73
2023/04/15 00:26:30;;;;;;;1.65;0.88;;;18.10;66.80;;;;;;4886708;29;45560;-73
2023/04/15 00:28:57;;;;;;;3.22;1.00;;;18.10;66.60;;;;;;4889812;29;45565;-73
2023/04/15 00:31:24;;;;;;;1.65;0.93;;;18.00;66.60;;;;;;4886901;29;45288;-73
2023/04/15 00:33:52;;;;;;;1.60;1.05;;;18.00;66.90;;;;;;4896071;29;45308;-73
2023/04/15 00:36:18;;;;;;;1.65;0.95;;;18.00;65.20;;;;;;4885485;29;45327;-73
2023/04/15 00:38:45;;;;;;;1.60;0.90;;;18.00;65.80;;;;;;4886594;29;45401;-73
2023/04/15 00:41:12;;;;;;;2.58;0.95;;;18.00;65.20;;;;;;4888058;29;45630;-73
2023/04/15 00:43:40;;;;;;;2.95;1.20;;;18.00;65.20;;;;;;4886671;29;46679;-73
2023/04/15 00:46:09;;;;;;;1.60;1.10;;;18.00;65.30;;;;;;4892958;29;45297;-73
2023/04/15 00:48:37;;;;;;;1.48;1.02;;;17.90;64.90;;;;;;4889068;29;45585;-73
2023/04/15 00:51:03;;;;;;;1.95;1.00;;;18.00;65.40;;;;;;4886535;29;45327;-73
2023/04/15 00:53:30;;;;;;;1.73;1.00;;;18.00;65.50;;;;;;4886660;29;46460;-73
2023/04/15 00:55:57;;;;;;;1.67;0.80;;;18.00;65.50;;;;;;4887828;29;45447;-73
2023/04/15 00:58:25;;;;;;;2.35;1.10;;;18.00;65.70;;;;;;4882673;29;45404;-73
2023/04/15 01:00:53;;;;;;;2.80;1.10;;;18.00;65.90;;;;;;4887346;29;45592;-73
2023/04/15 01:03:20;;;;;;;1.75;1.00;;;18.00;66.50;;;;;;4887088;29;45702;-73
2023/04/15 01:05:47;;;;;;;2.35;1.05;;;18.00;66.80;;;;;;4884485;29;45353;-73
2023/04/15 01:08:14;;;;;;;1.65;1.17;;;18.00;67.80;;;;;;4888224;29;45406;-73
2023/04/15 01:10:42;;;;;;;1.67;1.08;;;18.10;66.70;;;;;;4886252;29;45347;-73
2023/04/15 01:13:09;;;;;;;1.48;0.90;;;18.10;67.20;;;;;;4886759;29;47337;-73
2023/04/15 01:15:36;;;;;;;1.30;1.00;;;18.10;67.00;;;;;;4885948;29;45500;-73
2023/04/15 01:18:04;;;;;;;3.53;1.10;;;18.10;67.10;;;;;;4885259;29;45390;-73
2023/04/15 01:20:31;;;;;;;1.13;0.98;;;18.10;67.00;;;;;;4889506;29;45639;-73
2023/04/15 01:22:59;;;;;;;2.42;1.10;;;18.10;66.70;;;;;;4886650;29;45298;-73
2023/04/15 01:25:32;;;;;;;2.20;1.08;;;18.10;66.60;;;;;;4893982;29;46139;-73
2023/04/15 01:27:59;;;;;;;1.52;1.20;;;18.00;67.00;;;;;;4882539;29;45279;-73
2023/04/15 01:30:26;;;;;;;2.63;1.20;;;18.00;66.70;;;;;;4897966;29;45423;-73
2023/04/15 01:32:53;;;;;;;2.33;1.17;;;18.00;66.60;;;;;;4891802;29;47830;-73
2023/04/15 01:35:21;;;;;;;2.85;1.25;;;18.00;66.40;;;;;;4887691;29;45331;-73
2023/04/15 01:37:48;;;;;;;1.83;1.05;;;18.00;66.50;;;;;;4891617;29;45438;-73
2023/04/15 01:40:15;;;;;;;1.83;0.93;;;18.00;66.40;;;;;;4887900;29;45501;-73
2023/04/15 01:42:43;;;;;;;3.63;1.20;;;18.00;66.60;;;;;;4888223;29;46511;-73
2023/04/15 01:45:11;;;;;;;1.60;0.77;;;18.00;66.70;;;;;;4887713;29;45523;-73
2023/04/15 01:47:38;;;;;;;2.03;1.20;;;18.00;67.60;;;;;;4886232;29;45431;-73
2023/04/15 01:50:05;;;;;;;2.38;0.90;;;18.00;67.70;;;;;;4886686;29;45521;-73
2023/04/15 01:52:32;;;;;;;1.38;0.90;;;18.00;68.10;;;;;;4886783;29;45270;-73
2023/04/15 01:54:59;;;;;;;2.03;0.80;;;18.10;67.60;;;;;;4886404;29;45334;-73
2023/04/15 01:57:26;;;;;;;0.85;0.75;;;18.10;67.70;;;;;;4887038;29;45319;-73
2023/04/15 01:59:54;;;;;;;1.35;0.80;;;18.10;67.80;;;;;;4886521;29;45457;-73
2023/04/15 02:02:21;;;;;;;1.30;0.80;;;18.10;67.80;;;;;;4879479;29;46327;-73
2023/04/15 02:04:49;;;;;;;4.15;0.93;;;18.10;67.70;;;;;;4889719;29;45480;-73
2023/04/15 02:07:16;;;;;;;2.28;0.80;;;18.10;67.00;;;;;;4890056;29;45406;-73
2023/04/15 02:09:44;;;;;;;3.38;1.13;;;18.10;67.40;;;;;;4886008;29;45417;-73
2023/04/15 02:12:11;;;;;;;1.40;0.80;;;18.00;66.90;;;;;;4896866;29;46530;-73
2023/04/15 02:14:38;;;;;;;2.45;1.00;;;18.00;67.30;;;;;;4889778;29;45428;-73
2023/04/15 02:17:07;;;;;;;2.13;1.00;;;18.00;67.00;;;;;;4885893;29;45425;-73
2023/04/15 02:19:34;;;;;;;1.40;0.80;;;18.00;66.90;;;;;;4895817;29;45566;-73
2023/04/15 02:22:01;;;;;;;1.73;1.00;;;18.00;66.70;;;;;;4891346;29;47501;-73
2023/04/15 02:24:29;;;;;;;0.70;0.60;;;18.00;67.10;;;;;;4894857;29;45975;-73
2023/04/15 02:26:56;;;;;;;1.58;0.80;;;18.00;66.60;;;;;;4897682;29;45370;-73
2023/04/15 02:29:23;;;;;;;1.98;1.20;;;18.00;66.80;;;;;;4885213;29;45619;-73
2023/04/15 02:31:50;;;;;;;1.38;0.70;;;18.00;67.40;;;;;;4891988;29;47326;-73
2023/04/15 02:34:18;;;;;;;1.15;0.80;;;18.00;68.10;;;;;;4890537;29;45444;-73
2023/04/15 02:36:46;;;;;;;2.28;0.98;;;18.00;68.00;;;;;;4895901;29;45294;-73
2023/04/15 02:39:15;;;;;;;1.40;0.93;;;18.00;68.20;;;;;;4885936;29;45675;-74
2023/04/15 02:41:42;;;;;;;1.58;0.93;;;18.00;68.00;;;;;;4885262;29;46314;-73
2023/04/15 02:44:11;;;;;;;1.65;0.80;;;18.00;67.60;;;;;;4883957;29;45461;-73
2023/04/15 02:46:40;;;;;;;1.52;1.00;;;18.10;67.90;;;;;;4885591;29;45327;-73
2023/04/15 02:49:07;;;;;;;2.30;1.10;;;18.00;68.00;;;;;;4888110;29;45576;-73
2023/04/15 02:51:35;;;;;;;2.30;1.02;;;18.10;67.60;;;;;;4885074;29;47377;-73
2023/04/15 02:54:02;;;;;;;2.28;1.02;;;18.10;67.50;;;;;;4883310;29;45444;-73
2023/04/15 02:56:29;;;;;;;2.13;1.20;;;18.00;67.60;;;;;;4885368;29;45476;-73
2023/04/15 02:58:56;;;;;;;1.58;0.70;;;18.00;67.10;;;;;;4881970;29;45468;-73
2023/04/15 03:01:22;;;;;;;1.80;0.90;;;18.00;67.10;;;;;;4882718;29;48034;-73
2023/04/15 03:03:49;;;;;;;2.97;1.08;;;18.00;66.60;;;;;;4878069;29;45492;-73
2023/04/15 03:06:16;;;;;;;2.60;1.15;;;18.00;66.60;;;;;;4884487;29;45397;-73
2023/04/15 03:08:44;;;;;;;1.55;0.90;;;18.00;66.70;;;;;;4886432;29;45591;-73
2023/04/15 03:11:11;;;;;;;1.63;1.10;;;18.00;67.10;;;;;;4887697;29;47388;-73
2023/04/15 03:13:40;;;;;;;3.15;1.20;;;18.00;67.30;;;;;;4893251;29;45315;-73
2023/04/15 03:16:07;;;;;;;1.35;0.68;;;18.00;68.20;;;;;;4890604;29;45477;-73
2023/04/15 03:18:34;;;;;;;1.98;0.77;;;18.00;70.10;;;;;;4897269;29;45593;-73
2023/04/15 03:21:01;;;;;;;1.55;0.80;;;18.00;69.40;;;;;;4889171;29;48472;-73
2023/04/15 03:23:28;;;;;;;2.75;1.02;;;17.90;69.00;;;;;;4889036;29;45340;-73
2023/04/15 03:25:57;;;;;;;1.38;0.90;;;18.00;69.50;;;;;;4889874;29;45287;-73
2023/04/15 03:28:24;;;;;;;1.13;0.88;;;18.00;69.20;;;;;;4882194;29;45509;-73
2023/04/15 03:30:51;;;;;;;0.80;0.80;;;17.90;69.10;;;;;;4886217;29;45721;-73
2023/04/15 03:33:18;;;;;;;2.60;1.10;;;18.00;69.20;;;;;;4889060;29;45517;-73
2023/04/15 03:35:44;;;;;;;1.63;0.98;;;18.00;69.20;;;;;;4887884;29;45219;-73
2023/04/15 03:38:11;;;;;;;1.40;1.00;;;17.90;69.00;;;;;;4888584;29;45752;-73
2023/04/15 03:40:39;;;;;;;1.00;0.90;;;17.90;68.80;;;;;;4889262;29;45496;-73
2023/04/15 03:43:07;;;;;;;1.35;1.00;;;17.90;68.50;;;;;;4887504;29;45553;-73
2023/04/15 03:45:34;;;;;;;1.42;1.10;;;17.90;68.40;;;;;;4884937;29;45433;-74
2023/04/15 03:48:01;;;;;;;1.65;0.98;;;17.90;68.00;;;;;;4896716;29;45506;-74
2023/04/15 03:50:28;;;;;;;1.58;0.90;;;17.90;67.80;;;;;;4889091;29;47079;-73
2023/04/15 03:52:55;;;;;;;1.85;1.00;;;17.90;68.00;;;;;;4887208;29;45257;-74
2023/04/15 03:55:22;;;;;;;1.65;0.98;;;17.90;67.80;;;;;;4887826;29;45412;-73
2023/04/15 03:57:49;;;;;;;1.45;1.05;;;17.90;67.50;;;;;;4889014;29;45626;-73
2023/04/15 04:00:17;;;;;;;2.08;0.90;;;17.90;67.70;;;;;;4885688;29;47080;-73
2023/04/15 04:02:44;;;;;;;2.13;1.15;;;17.90;68.60;;;;;;4883796;29;45424;-73
2023/04/15 04:05:11;;;;;;;1.35;0.90;;;17.90;68.70;;;;;;4887555;29;45324;-73
2023/04/15 04:07:38;;;;;;;1.55;1.10;;;17.90;68.80;;;;;;4888970;29;45410;-73
2023/04/15 04:10:05;;;;;;;2.30;0.88;;;17.90;69.00;;;;;;4887992;29;47068;-73
2023/04/15 04:12:32;;;;;;;2.55;1.20;;;17.90;69.10;;;;;;4887762;29;45384;-74
2023/04/15 04:14:59;;;;;;;3.53;1.20;;;17.90;68.90;;;;;;4887691;29;45379;-74
2023/04/15 04:17:27;;;;;;;1.67;1.30;;;17.90;68.80;;;;;;4887433;29;45520;-74
2023/04/15 04:19:54;;;;;;;2.15;1.67;;;17.90;68.60;;;;;;4890409;29;46322;-74
2023/04/15 04:22:22;;;;;;;1.67;1.05;;;17.90;68.40;;;;;;4887543;29;45377;-74
2023/04/15 04:24:49;;;;;;;2.53;1.00;;;17.90;68.50;;;;;;4895386;29;45391;-74
2023/04/15 04:27:16;;;;;;;1.00;0.90;;;17.90;68.20;;;;;;4888390;29;45420;-73
2023/04/15 04:29:43;;;;;;;1.50;1.20;;;17.90;68.00;;;;;;4888258;29;46905;-74
2023/04/15 04:32:10;;;;;;;1.60;1.17;;;17.90;67.60;;;;;;4887539;29;45548;-73
2023/04/15 04:34:39;;;;;;;2.35;0.90;;;17.90;67.20;;;;;;4887294;29;45426;-74
2023/04/15 04:37:06;;;;;;;2.58;1.27;;;17.90;67.00;;;;;;4886670;29;45551;-73
2023/04/15 04:39:32;;;;;;;2.00;1.00;;;17.90;66.70;;;;;;4899279;29;47259;-74
2023/04/15 04:42:00;;;;;;;2.38;1.35;;;17.90;66.50;;;;;;4886381;29;45386;-73
2023/04/15 04:44:26;;;;;;;2.90;1.30;;;17.90;66.60;;;;;;4887286;29;45472;-73
2023/04/15 04:46:53;;;;;;;2.60;1.10;;;17.90;67.30;;;;;;4887402;29;45336;-73
2023/04/15 04:49:20;;;;;;;2.45;1.15;;;17.90;67.90;;;;;;4883698;29;45375;-73
2023/04/15 04:51:49;;;;;;;2.67;1.45;;;17.90;68.40;;;;;;4887042;29;45497;-74
2023/04/15 04:54:16;;;;;;;2.53;1.40;;;17.90;68.40;;;;;;4897900;29;45488;-74
2023/04/15 04:56:43;;;;;;;2.33;1.38;;;17.90;68.50;;;;;;4890552;29;45515;-73
2023/04/15 04:59:10;;;;;;;2.45;1.50;;;17.90;68.50;;;;;;4889273;29;46598;-73
2023/04/15 05:01:36;;;;;;;3.20;1.20;;;17.90;68.40;;;;;;4886668;29;46061;-73
2023/04/15 05:04:04;;;;;;;2.95;1.30;;;17.90;68.60;;;;;;4886134;29;45276;-74
2023/04/15 05:06:31;;;;;;;2.25;1.20;;;17.90;68.50;;;;;;4886385;29;45582;-73
2023/04/15 05:09:00;;;;;;;2.75;1.30;;;17.90;68.00;;;;;;4880766;29;47253;-73
2023/04/15 05:11:27;;;;;;;3.17;1.55;;;17.90;67.70;;;;;;4890731;29;45511;-74
2023/04/15 05:13:53;;;;;;;2.15;1.30;;;17.90;67.50;;;;;;4890019;29;45357;-74
2023/04/15 05:16:20;;;;;;;4.18;1.50;;;17.90;67.40;;;;;;4894795;29;45364;-74
2023/04/15 05:18:47;;;;;;;2.85;1.20;;;17.90;66.70;;;;;;4885807;29;47953;-73
2023/04/15 05:21:14;;;;;;;2.20;1.20;;;17.90;66.60;;;;;;4892734;29;45330;-74
2023/04/15 05:23:41;;;;;;;3.40;1.30;;;17.90;67.40;;;;;;4900816;29;45437;-74
2023/04/15 05:26:09;;;;;;;2.55;1.30;;;17.90;66.20;;;;;;4888585;29;45234;-74
2023/04/15 05:28:36;;;;;;;2.67;1.50;;;17.90;66.10;;;;;;4891269;29;46287;-74
2023/04/15 05:31:03;;;;;;;2.30;1.50;;;17.90;67.20;;;;;;4888954;29;45384;-74
2023/04/15 05:33:30;;;;;;;4.28;1.40;;;17.90;67.60;;;;;;4885734;29;45312;-73
2023/04/15 05:35:56;;;;;;;2.95;1.50;;;17.90;67.80;;;;;;4887078;29;45414;-74
2023/04/15 05:38:23;;;;;;;3.40;1.42;;;17.90;67.60;;;;;;4883561;29;46619;-74
2023/04/15 05:40:50;;;;;;;2.28;1.40;;;17.90;67.30;;;;;;4888441;29;45531;-74
2023/04/15 05:43:18;;;;;;;3.22;1.55;;;17.90;67.50;;;;;;4887085;29;45370;-74
2023/04/15 05:45:45;;;;;;;2.17;1.48;;;18.00;67.70;;;;;;4887485;29;45259;-74
2023/04/15 05:48:12;;;;;;;2.50;1.38;;;17.90;68.10;;;;;;4882349;29;47629;-74
2023/04/15 05:50:41;;;;;;;4.45;1.60;;;17.90;67.70;;;;;;4881528;29;45443;-74
2023/04/15 05:53:08;;;;;;;2.72;1.52;;;17.90;68.10;;;;;;4879114;29;45390;-74
2023/04/15 05:55:35;;;;;;;2.22;1.50;;;17.90;68.10;;;;;;4882633;29;45523;-74
2023/04/15 05:58:02;;;;;;;1.90;1.33;;;17.90;68.00;;;;;;4883197;29;46398;-74
2023/04/15 06:00:31;;;;;;;2.17;1.30;;;17.90;67.70;;;;;;4886903;29;45563;-74
2023/04/15 06:02:58;;;;;;;2.58;1.48;;;17.90;67.70;;;;;;4870464;29;45427;-74
2023/04/15 06:05:26;;;;;;;2.13;1.40;;;17.90;67.00;;;;;;4886897;29;45288;-74
2023/04/15 06:07:53;;;;;;;2.38;1.10;;;17.80;67.30;;;;;;4886337;29;47446;-74
2023/04/15 06:10:20;;;;;;;2.55;1.50;;;17.90;67.10;;;;;;4886356;29;45447;-74
2023/04/15 06:12:47;;;;;;;1.88;1.38;;;17.90;66.70;;;;;;4885696;29;45509;-74
2023/04/15 06:15:13;;;;;;;2.70;1.40;;;17.90;67.00;;;;;;4893652;29;45417;-74
2023/04/15 06:17:41;;;;;;;2.78;1.35;;;17.90;67.50;;;;;;4885779;29;47978;-74
2023/04/15 06:20:10;;;;;;;2.60;1.40;;;17.90;67.80;;;;;;4886142;29;45390;-74
2023/04/15 06:22:37;;;;;;;2.47;1.40;;;17.90;67.70;;;;;;4894802;29;45265;-74
2023/04/15 06:25:06;;;;;;;2.70;1.45;;;17.90;68.00;;;;;;4886290;29;45449;-74
2023/04/15 06:27:33;;;;;;;2.38;1.50;;;17.90;67.90;;;;;;4886502;29;46512;-74
2023/04/15 06:30:00;;;;;;;2.17;1.40;;;17.90;67.80;;;;;;4885528;29;45363;-74
2023/04/15 06:32:27;;;;;;;4.25;1.80;;;17.90;67.90;;;;;;4880517;29;45302;-74
2023/04/15 06:34:55;;;;;;;1.92;1.30;;;17.90;67.60;;;;;;4886567;29;45386;-74
2023/04/15 06:37:22;;;;;;;2.70;1.65;;;17.90;68.20;;;;;;4886360;29;46767;-74
2023/04/15 06:39:49;;;;;;;3.88;1.50;;;17.90;66.60;;;;;;4889989;29;45572;-74
2023/04/15 06:42:16;;;;;;;3.80;1.50;;;17.90;66.90;;;;;;4890007;29;45418;-75
2023/04/15 06:44:43;;;;;;;2.70;1.60;;;17.90;67.10;;;;;;4888864;29;45717;-75
2023/04/15 06:47:11;;;;;;;2.28;1.42;;;17.80;66.80;;;;;;4888782;29;47032;-76
2023/04/15 06:49:39;;;;;;;3.28;1.90;;;17.90;66.30;;;;;;4891364;29;45415;-75
2023/04/15 06:52:07;;;;;;;2.85;1.50;;;17.90;66.30;;;;;;4891363;29;45324;-75
2023/04/15 06:54:34;;;;;;;2.85;1.90;;;17.80;66.40;;;;;;4897393;29;45334;-75
2023/04/15 06:57:01;;;;;;;4.07;2.00;;;17.80;66.40;;;;;;4902296;29;48599;-76
2023/04/15 06:59:28;;;;;;;5.07;2.22;;;17.90;66.60;;;;;;4890628;29;45687;-75
2023/04/15 07:01:55;;;;;;;3.05;1.88;;;17.90;66.90;;;;;;4891166;29;45511;-75
2023/04/15 07:04:21;;;;;;;3.00;1.70;;;17.90;67.10;;;;;;4899360;29;45347;-75
2023/04/15 07:06:48;;;;;;;2.67;1.58;;;17.90;67.10;;;;;;4892760;29;47207;-76
2023/04/15 07:09:17;;;;;;;2.80;1.80;;;17.90;66.60;;;;;;4899908;29;46009;-76
2023/04/15 07:11:43;;;;;;;2.55;1.98;;;17.90;66.20;;;;;;4892378;29;45294;-77
2023/04/15 07:14:10;;;;;;;3.05;1.80;;;17.90;65.50;;;;;;4892418;29;45176;-77
2023/04/15 07:16:37;;;;;;;2.97;1.67;;;17.90;65.40;;;;;;4892264;29;46890;-76
2023/04/15 07:19:04;;;;;;;3.15;2.08;;;17.90;65.20;;;;;;4900438;29;45350;-75
2023/04/15 07:21:31;;;;;;;2.75;1.67;;;17.90;64.90;;;;;;4902934;29;45301;-75
2023/04/15 07:23:58;;;;;;;5.30;2.33;;;17.90;64.10;;;;;;4894024;29;45391;-75
2023/04/15 07:26:26;;;;;;;2.33;1.98;;;17.90;63.50;;;;;;4882590;29;46626;-75
2023/04/15 07:28:53;;;;;;;3.25;2.17;;;17.80;63.00;;;;;;4897772;29;45413;-75
2023/04/15 07:31:20;;;;;;;2.85;2.08;;;17.80;62.90;;;;;;4892012;29;45326;-76
2023/04/15 07:33:46;;;;;;;3.50;2.83;;;17.80;63.10;;;;;;4890782;29;45590;-75
2023/04/15 07:36:14;;;;;;;3.37;2.13;;;17.80;63.70;;;;;;4895881;29;47608;-74
2023/04/15 07:38:42;;;;;;;4.13;2.05;;;17.80;65.40;;;;;;4889767;29;45373;-74
2023/04/15 07:41:09;;;;;;;2.83;2.20;;;17.80;63.30;;;;;;4900118;29;45326;-76
2023/04/15 07:43:37;;;;;;;2.80;2.30;;;17.80;63.60;;;;;;4900440;29;45484;-75
2023/04/15 07:46:05;;;;;;;4.43;2.42;;;17.80;64.70;;;;;;4887107;29;47340;-75
2023/04/15 07:48:32;;;;;;;3.10;2.22;;;17.80;64.60;;;;;;4886470;29;45306;-75
2023/04/15 07:50:59;;;;;;;2.42;1.80;;;17.80;65.40;;;;;;4888495;29;45412;-75
2023/04/15 07:53:26;;;;;;;4.43;2.10;;;17.80;65.40;;;;;;4887284;29;45429;-75
2023/04/15 07:55:53;;;;;;;3.67;2.20;;;17.80;65.10;;;;;;4884994;29;47825;-74
2023/04/15 07:58:19;;;;;;;3.72;1.88;;;17.80;65.90;;;;;;4888623;29;45358;-74
2023/04/15 08:00:48;;;;;;;2.67;1.70;;;17.90;65.80;;;;;;4895203;29;45545;-75
2023/04/15 08:03:15;;;;;;;4.03;2.15;;;17.90;65.80;;;;;;4889224;29;45314;-74
2023/04/15 08:05:42;;;;;;;3.03;1.92;;;17.90;65.70;;;;;;4894030;29;45478;-75
2023/04/15 08:08:08;;;;;;;4.00;1.70;;;17.90;65.40;;;;;;4890316;29;45477;-75
2023/04/15 08:10:35;;;;;;;2.55;1.73;;;17.90;65.60;;;;;;4888723;29;45605;-75
2023/04/15 08:13:02;;;;;;;2.55;1.90;;;17.90;65.50;;;;;;4897267;29;45612;-75
2023/04/15 08:15:31;;;;;;;1.65;1.30;;;17.90;65.60;;;;;;4892736;29;46829;-75
2023/04/15 08:18:00;;;;;;;2.40;1.80;;;17.90;65.50;;;;;;4892154;29;46129;-75
2023/04/15 08:20:27;;;;;;;2.03;1.50;;;17.90;65.60;;;;;;4885455;29;45359;-75
2023/04/15 08:22:54;;;;;;;2.10;1.40;;;17.90;65.80;;;;;;4893189;29;45271;-75
2023/04/15 08:25:20;;;;;;;2.10;1.50;;;17.90;65.90;;;;;;4896061;29;47977;-74
2023/04/15 08:27:47;;;;;;;1.80;1.25;;;17.90;65.90;;;;;;4888910;29;45841;-75
2023/04/15 08:30:14;;;;;;;2.72;1.33;;;17.90;66.10;;;;;;4904759;29;45439;-74
2023/04/15 08:32:42;;;;;;;1.52;1.15;;;17.90;66.60;;;;;;4888912;29;45504;-74
2023/04/15 08:35:11;;;;;;;1.58;1.10;;;17.90;66.60;;;;;;4888261;29;46559;-75
2023/04/15 08:37:37;;;;;;;1.10;1.00;;;18.00;66.80;;;;;;4894154;29;46036;-75
2023/04/15 08:40:07;;;;;;;1.83;1.23;;;18.00;66.70;;;;;;4892258;29;45367;-74
2023/04/15 08:42:37;;;;;;;2.55;0.93;;;18.00;66.60;;;;;;4904060;29;45408;-75
2023/04/15 08:45:05;;;;;;;1.10;0.95;;;18.00;66.80;;;;;;4905067;29;47815;-75
2023/04/15 08:47:33;;;;;;;1.95;1.15;;;18.00;67.00;;;;;;4902468;29;45728;-74
2023/04/15 08:50:03;;;;;;;1.52;1.00;;;18.00;66.60;;;;;;4896291;29;45395;-75
2023/04/15 08:52:32;;;;;;;1.70;1.20;;;18.00;66.30;;;;;;4885878;29;45335;-74
2023/04/15 08:55:02;;;;;;;1.90;1.00;;;18.00;66.30;;;;;;4895993;29;48630;-74
2023/04/15 08:57:29;;;;;;;1.67;1.15;;;18.00;66.10;;;;;;4882817;29;45338;-74
2023/04/15 08:59:56;;;;;;;2.15;1.00;;;17.90;66.10;;;;;;4892724;29;45427;-74
2023/04/15 09:02:24;;;;;;;1.33;0.82;;;17.90;66.10;;;;;;4891639;29;45164;-74
2023/04/15 09:04:51;;;;;;;0.82;0.70;;;18.00;66.40;;;;;;4892444;29;46237;-74
2023/04/15 09:07:18;;;;;;;0.93;0.90;;;18.00;66.10;;;;;;4887760;29;45458;-74
2023/04/15 09:09:46;;;;;;;1.35;0.90;;;17.90;66.10;;;;;;4888217;29;45487;-74
2023/04/15 09:12:13;;;;;;;0.90;0.80;;;17.90;66.00;;;;;;4901794;29;45605;-74
2023/04/15 09:14:41;;;;;;;1.90;0.95;;;18.00;66.10;;;;;;4892926;29;45482;-74
2023/04/15 09:17:11;;;;;;;1.80;0.85;;;18.00;66.70;;;;;;4899061;29;45371;-74
2023/04/15 09:19:37;;;;;;;1.50;0.80;;;18.00;66.40;;;;;;4894501;29;45537;-74
2023/04/15 09:22:04;;;;;;;1.40;1.00;;;18.00;66.70;;;;;;4895827;29;45442;-74
2023/04/15 09:24:37;;;;;;;1.63;1.00;;;18.00;66.80;;;;;;4886861;29;47000;-74
2023/04/15 09:27:06;;;;;;;1.92;1.13;;;18.00;66.70;;;;;;4894947;29;45338;-75
2023/04/15 09:29:33;;;;;;;0.57;0.57;;;18.00;66.90;;;;;;4888260;29;45389;-74
2023/04/15 09:32:10;;;;;;;1.23;0.82;;;18.00;66.90;;;;;;4896260;29;45326;-74
2023/04/15 09:34:37;;;;;;;1.00;0.90;;;18.00;66.90;;;;;;4902142;29;45463;-74
2023/04/15 09:37:04;;;;;;;1.67;0.90;;;18.00;66.60;;;;;;4890493;29;46364;-74
2023/04/15 09:39:47;;;;;;;1.45;0.90;;;18.00;66.10;;;;;;4888126;29;45451;-74
2023/04/15 09:42:16;;;;;;;1.05;0.90;;;18.00;66.10;;;;;;4892839;29;45319;-74
2023/04/15 09:44:43;;;;;;;1.30;0.95;;;18.00;66.10;;;;;;4892628;29;46605;-74
2023/04/15 09:47:09;;;;;;;1.42;0.80;;;18.00;66.20;;;;;;4887526;29;45412;-74
2023/04/15 09:49:37;;;;;;;1.52;1.05;;;18.00;65.90;;;;;;4887846;29;45426;-74
2023/04/15 09:52:04;;;;;;;1.35;0.80;;;18.00;66.10;;;;;;4888680;29;45244;-74
2023/04/15 09:54:35;;;;;;;1.73;1.00;;;18.00;65.80;;;;;;4898880;29;45508;-74
2023/04/15 09:57:08;;;;;;;0.80;0.73;;;18.00;65.80;;;;;;4887870;29;45930;-74
2023/04/15 09:59:36;;;;;;;1.45;0.93;;;18.00;65.80;;;;;;4890887;29;45466;-74
2023/04/15 10:02:06;;;;;;;0.98;0.63;;;18.00;66.60;;;;;;4895144;29;45440;-74
2023/04/15 10:04:36;;;;;;;1.13;0.70;;;18.00;66.30;;;;;;4891682;29;48589;-74
2023/04/15 10:07:05;;;;;;;1.98;0.60;;;18.00;66.10;;;;;;4898432;29;45275;-74
2023/04/15 10:09:33;;;;;;;0.98;0.77;;;18.00;66.60;;;;;;4899003;29;45302;-74
2023/04/15 10:12:00;;;;;;;0.93;0.70;;;18.00;66.60;;;;;;4891291;29;45362;-74
2023/04/15 10:14:32;;;;;;;1.83;0.90;;;18.00;66.60;;;;;;4894737;29;45479;-74
2023/04/15 10:17:02;;;;;;;2.08;0.73;;;18.00;66.50;;;;;;4892039;29;45387;-74
2023/04/15 10:19:33;;;;;;;1.85;1.00;;;18.00;66.40;;;;;;4886402;29;45280;-74
2023/04/15 10:22:00;;;;;;;1.15;0.80;;;18.00;65.90;;;;;;4913618;29;45400;-74
2023/04/15 10:24:28;;;;;;;0.77;0.60;;;18.00;65.60;;;;;;4904999;29;46727;-74
2023/04/15 10:26:56;;;;;;;0.80;0.60;;;18.00;65.80;;;;;;4897540;29;45690;-74
2023/04/15 10:29:24;;;;;;;1.20;0.80;;;18.00;65.90;;;;;;4912447;29;45431;-74
2023/04/15 10:31:53;;;;;;;1.25;0.85;;;18.00;65.80;;;;;;4895288;29;45397;-74
2023/04/15 10:34:23;;;;;;;1.00;0.88;;;17.90;65.60;;;;;;4893950;29;45289;-74
2023/04/15 10:36:50;;;;;;;0.63;0.60;;;18.00;65.70;;;;;;4894426;29;45333;-74
2023/04/15 10:39:40;;;;;;;1.00;0.88;;;18.00;65.70;;;;;;4894493;29;45264;-74
2023/04/15 10:42:10;;;;;;;0.60;0.60;;;18.00;65.40;;;;;;4894079;29;45306;-74
2023/04/15 10:44:38;;;;;;;1.02;0.75;;;18.00;65.80;;;;;;4901493;29;47385;-74
2023/04/15 10:47:11;;;;;;;0.90;0.85;;;18.00;65.90;;;;;;4902064;29;45390;-74
2023/04/15 10:49:49;;;;;;;0.65;0.65;;;18.00;66.10;;;;;;4901108;29;45421;-74
2023/04/15 10:52:18;;;;;;;0.90;0.68;;;18.00;66.10;;;;;;4894442;29;45480;-74
2023/04/15 10:54:45;;;;;;;1.00;0.60;;;18.00;66.00;;;;;;4893891;29;46601;-74
2023/04/15 10:57:17;;;;;;;0.80;0.75;;;18.00;66.30;;;;;;4903275;29;45549;-74
2023/04/15 11:00:11;;;;;;;1.08;0.75;;;18.00;66.10;;;;;;4905074;29;45325;-74
2023/04/15 11:02:46;;;;;;;1.20;0.82;;;18.00;66.20;;;;;;4901046;29;45503;-74
2023/04/15 11:05:16;;;;;;;1.25;0.88;;;18.00;66.20;;;;;;4894824;29;46607;-74
2023/04/15 11:07:52;;;;;;;1.10;0.90;;;18.00;65.80;;;;;;4890987;29;45290;-74
2023/04/15 11:10:56;;;;;;;0.70;0.70;;;18.00;65.40;;;;;;4904355;29;45261;-74
2023/04/15 11:13:26;;;;;;;1.50;0.80;;;18.00;65.70;;;;;;4894136;29;45508;-74
2023/04/15 11:15:56;;;;;;;1.30;1.10;;;18.00;65.50;;;;;;4908461;29;46661;-74
2023/04/15 11:18:25;;;;;;;1.05;0.80;;;18.00;65.40;;;;;;4897258;29;45976;-74
2023/04/15 11:20:56;;;;;;;1.83;1.00;;;18.00;65.40;;;;;;4900775;29;45367;-74
2023/04/15 11:23:29;;;;;;;1.00;0.90;;;18.00;65.20;;;;;;4901920;29;45629;-74
2023/04/15 11:25:56;;;;;;;1.05;0.95;;;18.00;65.20;;;;;;4894700;29;46870;-74
2023/04/15 11:28:26;;;;;;;1.00;0.90;;;18.00;65.40;;;;;;4893526;29;46149;-74
2023/04/15 11:30:54;;;;;;;1.08;0.98;;;17.90;65.10;;;;;;4900319;29;45279;-74
2023/04/15 11:33:21;;;;;;;1.00;0.90;;;18.00;65.80;;;;;;4901286;29;45487;-73
2023/04/15 11:35:48;;;;;;;1.52;0.95;;;18.00;65.80;;;;;;4895340;29;47424;-74
2023/04/15 11:38:16;;;;;;;3.75;1.10;;;18.00;66.00;;;;;;4900408;29;45279;-74
2023/04/15 11:40:43;;;;;;;0.80;0.80;;;18.00;66.00;;;;;;4909303;29;45294;-74
2023/04/15 11:43:12;;;;;;;0.90;0.85;;;18.00;65.90;;;;;;4880084;29;45649;-74
2023/04/15 11:45:50;;;;;;;1.02;0.93;;;18.00;66.10;;;;;;4896159;29;46548;-74
2023/04/15 11:48:17;;;;;;;1.13;1.00;;;18.00;66.10;;;;;;4900312;29;45399;-74
2023/04/15 11:50:44;;;;;;;0.95;0.90;;;18.00;65.90;;;;;;4901678;29;45370;-74
2023/04/15 11:53:12;;;;;;;1.10;1.00;;;18.00;65.40;;;;;;4892210;29;45513;-74
2023/04/15 11:55:45;;;;;;;0.98;0.90;;;18.00;65.10;;;;;;4895080;29;47685;-74
2023/04/15 11:58:14;;;;;;;0.77;0.77;;;18.00;65.20;;;;;;4899687;29;45971;-74
2023/04/15 12:00:41;;;;;;;1.08;0.95;;;18.00;65.00;;;;;;4884313;29;45361;-73
2023/04/15 12:03:18;;;;;;;1.10;1.00;;;18.00;65.20;;;;;;4889753;29;45416;-74
2023/04/15 12:06:09;;;;;;;1.20;1.05;;;18.00;65.10;;;;;;4902961;29;46160;-74
2023/04/15 12:08:53;;;;;;;1.25;0.88;;;18.00;64.80;;;;;;4891649;29;46181;-74
2023/04/15 12:11:28;;;;;;;1.92;1.10;;;17.90;64.70;;;;;;4905401;29;45275;-74
2023/04/15 12:13:56;;;;;;;1.00;0.80;;;18.00;64.80;;;;;;4900541;29;45315;-73
2023/04/15 12:16:24;;;;;;;1.13;1.00;;;18.00;64.90;;;;;;4889808;29;47008;-74
2023/04/15 12:18:51;;;;;;;0.60;0.60;;;18.00;65.40;;;;;;4889951;29;45330;-74
2023/04/15 12:21:19;;;;;;;0.95;0.80;;;18.00;65.20;;;;;;4899755;29;45477;-74
2023/04/15 12:23:50;;;;;;;0.77;0.75;;;18.00;65.40;;;;;;4894938;29;45330;-74
2023/04/15 12:26:18;;;;;;;1.48;0.80;;;18.00;65.50;;;;;;4889517;29;46314;-74
2023/04/15 12:28:46;;;;;;;0.73;0.70;;;18.00;65.60;;;;;;4895677;29;45307;-73
2023/04/15 12:31:14;;;;;;;0.98;0.70;;;18.00;65.90;;;;;;4898564;29;45320;-74
2023/04/15 12:33:41;;;;;;;0.90;0.60;;;18.00;65.50;;;;;;4894764;29;45396;-74
2023/04/15 12:36:08;;;;;;;0.70;0.70;;;18.00;65.00;;;;;;4891230;29;46944;-73
2023/04/15 12:38:34;;;;;;;1.35;0.90;;;18.00;64.60;;;;;;4893628;29;45405;-74
2023/04/15 12:41:01;;;;;;;0.73;0.70;;;18.00;64.70;;;;;;4900248;29;45311;-73
2023/04/15 12:43:28;;;;;;;0.70;0.70;;;18.00;64.70;;;;;;4895883;29;45318;-73
2023/04/15 12:45:56;;;;;;;1.30;0.90;;;18.00;64.60;;;;;;4888853;29;45302;-73
2023/04/15 12:48:23;;;;;;;0.95;0.82;;;18.00;64.40;;;;;;4891862;29;45382;-74
2023/04/15 12:50:50;;;;;;;1.15;0.95;;;18.00;64.40;;;;;;4890134;29;45369;-74
2023/04/15 12:53:17;;;;;;;0.95;0.70;;;18.00;64.40;;;;;;4888978;29;45405;-73